Time;durP1;ratioP1;P1;durP2;ratioP2;P2;SDS_P1;SDS_P2;PMS_P1;PMS_P2;Temp;Humidity;BMP_temperature;BMP_pressure;BME280_temperature;BME280_humidity;BME280_pressure;Samples;Min_cycle;Max_cycle;Signal;HPM_P1;HPM_P2
2021/08/26 00:06:46;;;;;;;13.88;7.40;;;;;;;13.82;77.88;98895.81;4750808;30;20057;-61
2021/08/26 00:09:15;;;;;;;10.30;7.10;;;;;;;13.82;78.05;98887.84;4720007;30;20297;-61
2021/08/26 00:11:44;;;;;;;14.35;8.30;;;;;;;13.82;78.05;98899.31;4721443;30;20074;-61
2021/08/26 00:14:10;;;;;;;15.60;8.13;;;;;;;13.82;78.03;98898.50;4754079;30;20044;-61
2021/08/26 00:16:40;;;;;;;18.10;7.60;;;;;;;13.86;77.83;98911.00;4738291;30;20055;-60
2021/08/26 00:19:06;;;;;;;19.15;9.35;;;;;;;13.91;78.14;98907.53;4753953;30;20159;-61
2021/08/26 00:21:32;;;;;;;12.40;8.43;;;;;;;13.92;77.63;98898.47;4753978;30;20395;-62
2021/08/26 00:23:58;;;;;;;14.43;8.13;;;;;;;13.91;78.02;98899.53;4753873;30;20048;-62
2021/08/26 00:26:24;;;;;;;15.13;8.52;;;;;;;13.92;78.01;98897.69;4753886;30;20139;-61
2021/08/26 00:28:49;;;;;;;16.95;7.88;;;;;;;13.88;78.43;98892.06;4754081;30;20054;-62
2021/08/26 00:31:15;;;;;;;13.63;7.90;;;;;;;13.82;78.11;98887.84;4752352;30;20062;-60
2021/08/26 00:33:41;;;;;;;10.43;7.88;;;;;;;13.74;79.29;98889.19;4737698;30;20059;-62
2021/08/26 00:36:07;;;;;;;13.07;7.63;;;;;;;13.74;78.65;98886.53;4753818;30;20056;-61
2021/08/26 00:38:32;;;;;;;11.93;7.18;;;;;;;13.64;79.26;98879.34;4753671;30;20054;-62
2021/08/26 00:40:59;;;;;;;16.73;8.13;;;;;;;13.61;79.96;98874.56;4737936;30;20044;-61
2021/08/26 00:43:30;;;;;;;10.63;7.93;;;;;;;13.69;80.05;98875.88;4752567;30;20074;-60
2021/08/26 00:45:57;;;;;;;11.63;7.75;;;;;;;13.68;80.49;98876.97;4753753;30;20051;-63
2021/08/26 00:48:23;;;;;;;12.07;7.70;;;;;;;13.69;80.04;98873.22;4737939;30;20078;-61
2021/08/26 00:50:51;;;;;;;13.75;7.35;;;;;;;13.69;79.73;98891.06;4753412;30;20104;-63
2021/08/26 00:53:17;;;;;;;14.00;7.65;;;;;;;13.64;80.00;98868.69;4753759;30;20060;-61
2021/08/26 00:55:51;;;;;;;14.07;7.65;;;;;;;13.67;80.11;98863.91;4752371;30;20052;-61
2021/08/26 00:58:18;;;;;;;13.50;7.57;;;;;;;13.63;80.52;98868.97;4737638;30;20060;-61
2021/08/26 01:00:51;;;;;;;11.35;7.50;;;;;;;13.62;80.65;98859.41;4753260;30;20515;-61
2021/08/26 01:03:25;;;;;;;11.20;7.22;;;;;;;13.63;80.64;98858.31;4753054;30;20515;-61
2021/08/26 01:05:56;;;;;;;12.15;7.28;;;;;;;13.56;80.26;98844.47;4737645;30;20534;-61
2021/08/26 01:08:27;;;;;;;13.13;6.80;;;;;;;13.60;80.44;98858.88;4737138;30;20060;-62
2021/08/26 01:10:58;;;;;;;15.73;7.40;;;;;;;13.59;80.79;98846.63;4737280;30;20113;-61
2021/08/26 01:13:30;;;;;;;9.77;6.80;;;;;;;13.57;80.66;98856.75;4753325;30;20056;-61
2021/08/26 01:16:13;;;;;;;11.32;7.72;;;;;;;13.55;81.09;98846.34;4737220;30;20048;-63
2021/08/26 01:18:44;;;;;;;12.13;7.05;;;;;;;13.59;80.76;98842.09;4753076;30;20052;-61
2021/08/26 01:21:19;;;;;;;13.68;7.65;;;;;;;13.60;80.98;98845.56;4752962;30;20511;-61
2021/08/26 01:23:48;;;;;;;11.25;7.07;;;;;;;13.55;80.63;98840.22;4752070;30;20105;-61
2021/08/26 01:26:17;;;;;;;11.10;6.72;;;;;;;13.55;80.88;98842.91;4752885;30;20044;-61
2021/08/26 01:28:43;;;;;;;12.07;6.95;;;;;;;13.53;80.82;98845.03;4752892;30;20510;-62
2021/08/26 01:31:09;;;;;;;13.05;6.50;;;;;;;13.49;81.14;98839.44;4736745;30;20515;-61
2021/08/26 01:33:36;;;;;;;12.25;7.18;;;;;;;13.49;81.35;98833.31;4736920;30;20048;-62
2021/08/26 01:36:02;;;;;;;10.65;6.22;;;;;;;13.33;81.53;98816.59;4736802;30;20059;-61
2021/08/26 01:38:29;;;;;;;10.27;6.43;;;;;;;13.45;81.72;98825.09;4752857;30;20410;-62
2021/08/26 01:40:55;;;;;;;10.40;6.93;;;;;;;13.42;81.80;98833.63;4722238;30;20517;-60
2021/08/26 01:43:23;;;;;;;9.38;6.30;;;;;;;13.39;81.11;98818.97;4736715;30;20056;-61
2021/08/26 01:45:49;;;;;;;11.70;6.38;;;;;;;13.36;81.46;98832.81;4736905;30;20135;-61
2021/08/26 01:48:19;;;;;;;10.93;6.53;;;;;;;13.35;81.67;98823.25;4752856;30;20067;-61
2021/08/26 01:50:48;;;;;;;11.50;6.10;;;;;;;13.34;81.49;98818.19;4752730;30;20056;-61
2021/08/26 01:53:15;;;;;;;9.03;5.80;;;;;;;13.34;81.21;98828.81;4751351;30;20056;-61
2021/08/26 01:55:41;;;;;;;12.23;6.20;;;;;;;13.33;81.51;98827.25;4752452;30;20286;-61
2021/08/26 01:58:08;;;;;;;12.27;6.38;;;;;;;13.32;81.22;98833.63;4751246;30;20435;-61
2021/08/26 02:00:34;;;;;;;10.43;5.75;;;;;;;13.30;81.27;98835.75;4722196;30;20553;-61
2021/08/26 02:03:00;;;;;;;10.32;6.28;;;;;;;13.28;81.33;98825.38;4751283;30;20052;-61
2021/08/26 02:05:26;;;;;;;10.30;6.18;;;;;;;13.29;81.43;98826.16;4736749;30;20047;-62
2021/08/26 02:07:54;;;;;;;9.68;6.00;;;;;;;13.32;81.66;98823.75;4752142;30;20068;-61
2021/08/26 02:10:20;;;;;;;10.38;6.57;;;;;;;13.32;81.36;98814.97;4752121;30;20508;-59
2021/08/26 02:12:46;;;;;;;12.05;6.50;;;;;;;13.29;81.40;98816.31;4752270;30;20823;-62
2021/08/26 02:15:13;;;;;;;10.02;6.10;;;;;;;13.30;81.41;98817.13;4751133;30;20072;-62
2021/08/26 02:17:39;;;;;;;10.80;6.13;;;;;;;13.30;81.57;98827.78;4750871;30;20526;-61
2021/08/26 02:20:07;;;;;;;11.95;7.28;;;;;;;13.30;81.86;98830.44;4752207;30;20063;-62
2021/08/26 02:22:33;;;;;;;9.60;5.80;;;;;;;13.25;82.19;98831.22;4752131;30;20391;-61
2021/08/26 02:24:59;;;;;;;10.88;6.65;;;;;;;13.22;82.94;98836.28;4752124;30;20426;-61
2021/08/26 02:27:25;;;;;;;9.38;6.38;;;;;;;13.21;83.01;98832.81;4752094;30;20051;-61
2021/08/26 02:29:51;;;;;;;9.32;5.82;;;;;;;13.22;82.71;98833.59;4751857;30;20190;-62
2021/08/26 02:32:17;;;;;;;14.35;6.65;;;;;;;13.26;83.34;98829.38;4721340;30;20072;-61
2021/08/26 02:34:43;;;;;;;10.27;6.63;;;;;;;13.29;82.84;98828.81;4735637;30;20483;-62
2021/08/26 02:37:08;;;;;;;11.57;6.68;;;;;;;13.30;81.84;98833.09;4751794;30;20052;-60
2021/08/26 02:39:35;;;;;;;13.65;6.47;;;;;;;13.32;82.20;98834.41;4751599;30;20106;-61
2021/08/26 02:42:02;;;;;;;10.20;6.95;;;;;;;13.35;81.66;98839.22;4751673;30;20499;-61
2021/08/26 02:44:27;;;;;;;12.63;7.65;;;;;;;13.32;81.29;98829.09;4735954;30;20048;-61
2021/08/26 02:46:53;;;;;;;15.00;7.38;;;;;;;13.31;81.15;98829.38;4751906;30;20048;-60
2021/08/26 02:49:20;;;;;;;15.93;8.15;;;;;;;13.29;81.21;98826.16;4751650;30;20118;-61
2021/08/26 02:51:46;;;;;;;15.48;7.82;;;;;;;13.26;80.92;98826.69;4751444;30;20052;-60
2021/08/26 02:54:12;;;;;;;11.38;7.82;;;;;;;13.28;81.01;98824.59;4735802;30;20108;-61
2021/08/26 02:56:38;;;;;;;10.95;6.00;;;;;;;13.26;80.60;98819.50;4751440;30;20557;-61
2021/08/26 02:59:03;;;;;;;11.65;7.65;;;;;;;13.25;80.68;98825.91;4735477;30;20048;-61
2021/08/26 03:01:29;;;;;;;13.23;6.78;;;;;;;13.29;80.77;98829.63;4751306;30;20048;-60
2021/08/26 03:03:55;;;;;;;13.68;7.30;;;;;;;13.28;80.45;98832.56;4735304;30;20106;-63
2021/08/26 03:06:21;;;;;;;10.88;6.68;;;;;;;13.25;80.35;98825.09;4750238;30;20048;-61
2021/08/26 03:08:47;;;;;;;11.77;6.68;;;;;;;13.24;80.39;98826.16;4735118;30;20075;-61
2021/08/26 03:11:13;;;;;;;12.48;6.78;;;;;;;13.23;80.50;98825.34;4749853;30;20056;-61
2021/08/26 03:13:40;;;;;;;11.60;7.32;;;;;;;13.27;80.55;98844.28;4751067;30;20099;-61
2021/08/26 03:16:06;;;;;;;10.60;7.30;;;;;;;13.28;80.23;98833.34;4735010;30;20080;-61
2021/08/26 03:18:33;;;;;;;10.73;7.40;;;;;;;13.29;80.18;98834.16;4751235;30;20063;-61
2021/08/26 03:20:58;;;;;;;11.98;7.07;;;;;;;13.29;79.94;98837.59;4735349;30;20052;-61
2021/08/26 03:23:24;;;;;;;9.90;6.78;;;;;;;13.28;79.66;98837.88;4734959;30;20105;-60
2021/08/26 03:25:52;;;;;;;12.95;6.82;;;;;;;13.31;79.77;98845.34;4750950;30;20044;-60
2021/08/26 03:28:20;;;;;;;9.45;6.18;;;;;;;13.28;80.01;98838.69;4720687;30;20044;-61
2021/08/26 03:30:46;;;;;;;11.88;6.00;;;;;;;13.30;79.65;98838.44;4750889;30;20139;-61
2021/08/26 03:33:13;;;;;;;9.68;6.68;;;;;;;13.30;79.55;98841.09;4751005;30;20056;-60
2021/08/26 03:35:39;;;;;;;10.05;5.85;;;;;;;13.32;79.27;98846.91;4751063;30;20078;-62
2021/08/26 03:38:05;;;;;;;9.93;6.75;;;;;;;13.32;79.91;98846.91;4749515;30;20542;-61
2021/08/26 03:40:31;;;;;;;15.13;8.40;;;;;;;13.33;79.49;98849.34;4720340;30;20083;-62
2021/08/26 03:42:56;;;;;;;11.38;6.45;;;;;;;13.34;79.52;98839.47;4751071;30;20087;-60
2021/08/26 03:45:22;;;;;;;10.23;6.28;;;;;;;13.33;79.35;98851.19;4734994;30;20056;-61
2021/08/26 03:47:48;;;;;;;13.65;6.53;;;;;;;13.37;79.56;98850.38;4750475;30;20048;-62
2021/08/26 03:50:14;;;;;;;9.88;6.53;;;;;;;13.40;79.51;98846.38;4750657;30;20049;-62
2021/08/26 03:52:40;;;;;;;11.70;6.20;;;;;;;13.44;79.24;98838.66;4750771;30;20060;-61
2021/08/26 03:55:06;;;;;;;13.43;6.60;;;;;;;13.46;79.01;98837.31;4734878;30;20083;-62
2021/08/26 03:57:32;;;;;;;11.65;5.90;;;;;;;13.46;79.10;98832.00;4734690;30;20060;-59
2021/08/26 03:59:58;;;;;;;10.02;6.15;;;;;;;13.46;79.26;98841.84;4750664;30;20106;-61
2021/08/26 04:02:23;;;;;;;10.60;5.88;;;;;;;13.45;79.25;98840.28;4750272;30;20227;-61
2021/08/26 04:04:50;;;;;;;9.98;6.10;;;;;;;13.45;78.92;98842.94;4749260;30;20051;-62
2021/08/26 04:07:17;;;;;;;9.98;5.85;;;;;;;13.46;79.27;98839.19;4750384;30;20087;-60
2021/08/26 04:09:45;;;;;;;11.07;6.57;;;;;;;13.49;79.43;98842.09;4749254;30;20105;-61
2021/08/26 04:12:11;;;;;;;10.23;6.13;;;;;;;13.52;79.44;98838.91;4749122;30;20080;-61
2021/08/26 04:14:37;;;;;;;11.27;6.22;;;;;;;13.51;79.13;98845.31;4750417;30;20584;-61
2021/08/26 04:17:04;;;;;;;10.20;6.22;;;;;;;13.54;79.39;98844.75;4750620;30;20142;-60
2021/08/26 04:19:30;;;;;;;9.93;6.15;;;;;;;13.58;78.88;98845.03;4734584;30;20113;-61
2021/08/26 04:21:56;;;;;;;14.68;6.15;;;;;;;13.61;79.21;98849.81;4734596;30;20072;-62
2021/08/26 04:24:22;;;;;;;9.48;6.32;;;;;;;13.68;79.13;98841.53;4734373;30;20099;-61
2021/08/26 04:26:48;;;;;;;10.63;6.20;;;;;;;13.73;78.68;98841.50;4750354;30;20055;-61
2021/08/26 04:29:14;;;;;;;9.07;5.85;;;;;;;13.74;78.51;98843.13;4749097;30;20056;-61
2021/08/26 04:31:40;;;;;;;11.80;6.50;;;;;;;13.75;78.37;98831.41;4748914;30;20101;-61
2021/08/26 04:34:05;;;;;;;10.73;6.82;;;;;;;13.81;78.94;98835.63;4719777;30;20048;-62
2021/08/26 04:36:31;;;;;;;12.20;7.00;;;;;;;13.89;78.03;98834.28;4750009;30;20048;-60
2021/08/26 04:38:57;;;;;;;15.27;7.60;;;;;;;13.92;77.84;98836.41;4750064;30;20044;-61
2021/08/26 04:41:23;;;;;;;10.60;7.00;;;;;;;13.96;77.72;98832.13;4748821;30;20059;-60
2021/08/26 04:43:48;;;;;;;9.93;6.80;;;;;;;14.09;77.16;98845.66;4750068;30;20158;-62
2021/08/26 04:46:14;;;;;;;13.18;7.82;;;;;;;14.17;77.34;98828.28;4733819;30;20054;-61
2021/08/26 04:48:40;;;;;;;13.88;7.78;;;;;;;14.25;77.46;98832.25;4749821;30;20044;-63
2021/08/26 04:51:06;;;;;;;10.18;6.63;;;;;;;14.25;77.13;98840.25;4749878;30;20048;-62
2021/08/26 04:53:32;;;;;;;12.48;7.13;;;;;;;14.38;76.79;98836.16;4749153;30;20135;-62
2021/08/26 04:55:57;;;;;;;9.70;6.53;;;;;;;14.44;76.27;98843.88;4750192;30;20527;-61
2021/08/26 04:58:24;;;;;;;11.48;6.65;;;;;;;14.47;76.94;98843.34;4736062;30;20519;-63
2021/08/26 05:00:50;;;;;;;11.45;7.28;;;;;;;14.55;76.04;98836.63;4752119;30;20047;-63
2021/08/26 05:03:16;;;;;;;12.05;7.18;;;;;;;14.63;76.18;98835.25;4753533;30;20056;-62
2021/08/26 05:05:42;;;;;;;11.05;6.90;;;;;;;14.79;75.38;98834.06;4752024;30;20052;-60
2021/08/26 05:08:07;;;;;;;13.52;6.88;;;;;;;14.91;75.05;98841.72;4753039;30;20052;-60
2021/08/26 05:10:33;;;;;;;9.82;6.63;;;;;;;14.94;74.89;98843.81;4737107;30;20079;-61
2021/08/26 05:12:59;;;;;;;10.32;7.30;;;;;;;14.98;74.83;98837.66;4751743;30;20048;-62
2021/08/26 05:15:25;;;;;;;11.90;7.47;;;;;;;15.04;74.72;98841.09;4751643;30;20056;-62
2021/08/26 05:17:51;;;;;;;9.30;6.60;;;;;;;15.04;74.67;98835.75;4737136;30;20050;-62
2021/08/26 05:20:16;;;;;;;11.95;7.43;;;;;;;14.99;74.70;98841.91;4752908;30;20052;-63
2021/08/26 05:22:42;;;;;;;11.82;6.50;;;;;;;14.95;75.28;98832.88;4752923;30;20135;-61
2021/08/26 05:25:08;;;;;;;12.02;7.55;;;;;;;14.91;75.11;98836.38;4736410;30;20048;-63
2021/08/26 05:27:34;;;;;;;11.07;7.00;;;;;;;14.93;75.27;98843.03;4752731;30;20091;-61
2021/08/26 05:30:00;;;;;;;11.95;7.50;;;;;;;14.97;75.49;98840.59;4736884;30;20539;-62
2021/08/26 05:32:26;;;;;;;14.57;7.55;;;;;;;14.91;75.46;98837.19;4752833;30;20119;-61
2021/08/26 05:34:52;;;;;;;11.45;7.07;;;;;;;14.99;75.07;98844.56;4736477;30;20052;-63
2021/08/26 05:37:17;;;;;;;10.98;7.20;;;;;;;15.10;75.04;98845.31;4731851;30;20105;-71
2021/08/26 05:39:43;;;;;;;13.20;7.38;;;;;;;15.14;74.54;98843.66;4751160;30;20063;-63
2021/08/26 05:42:09;;;;;;;13.98;7.53;;;;;;;15.13;74.70;98841.28;4752067;30;20052;-61
2021/08/26 05:44:35;;;;;;;10.00;6.90;;;;;;;15.17;74.60;98848.44;4752248;30;20048;-62
2021/08/26 05:47:01;;;;;;;12.00;7.40;;;;;;;15.23;74.37;98838.50;4752264;30;20044;-61
2021/08/26 05:49:27;;;;;;;9.45;6.95;;;;;;;15.29;74.47;98840.03;4752149;30;20435;-63
2021/08/26 05:51:56;;;;;;;9.10;7.28;;;;;;;15.28;74.13;98843.81;4752068;30;20637;-62
2021/08/26 05:54:22;;;;;;;11.95;7.50;;;;;;;15.38;74.23;98851.75;4736879;30;20071;-61
2021/08/26 05:56:49;;;;;;;12.57;7.90;;;;;;;15.56;74.06;98857.41;4736148;30;20040;-62
2021/08/26 05:59:15;;;;;;;13.25;8.18;;;;;;;15.82;73.10;98855.31;4752198;30;20056;-61
2021/08/26 06:01:42;;;;;;;11.55;7.78;;;;;;;15.94;72.44;98850.34;4752269;30;20052;-60
2021/08/26 06:04:08;;;;;;;13.70;8.20;;;;;;;16.05;71.96;98854.50;4752189;30;20048;-62
2021/08/26 06:06:34;;;;;;;14.50;8.85;;;;;;;16.14;71.61;98860.00;4752164;30;20051;-62
2021/08/26 06:08:59;;;;;;;17.70;8.75;;;;;;;16.25;70.75;98869.50;4747583;30;20072;-61
2021/08/26 06:11:25;;;;;;;13.80;8.50;;;;;;;16.29;71.17;98862.47;4718147;30;20044;-60
2021/08/26 06:13:51;;;;;;;13.65;9.35;;;;;;;16.38;70.68;98867.19;4752477;30;20526;-62
2021/08/26 06:16:17;;;;;;;15.60;8.77;;;;;;;16.54;70.19;98868.59;4749741;30;20078;-61
2021/08/26 06:18:44;;;;;;;16.40;8.70;;;;;;;16.62;69.86;98867.94;4751718;30;20052;-62
2021/08/26 06:21:10;;;;;;;20.80;10.75;;;;;;;16.63;69.91;98864.16;4748494;30;20101;-60
2021/08/26 06:23:37;;;;;;;14.32;8.75;;;;;;;16.61;69.89;98873.56;4733253;30;20101;-62
2021/08/26 06:26:03;;;;;;;14.85;8.50;;;;;;;16.70;69.73;98871.81;4747558;30;20048;-61
2021/08/26 06:28:29;;;;;;;13.75;9.43;;;;;;;16.79;69.33;98875.47;4746533;30;20058;-63
2021/08/26 06:30:55;;;;;;;14.35;9.07;;;;;;;16.88;69.11;98878.28;4747313;30;20072;-62
2021/08/26 06:33:21;;;;;;;18.77;10.35;;;;;;;17.07;68.70;98875.59;4748645;30;20099;-60
2021/08/26 06:35:47;;;;;;;18.45;9.50;;;;;;;17.20;68.23;98877.50;4703349;30;20056;-61
2021/08/26 06:38:14;;;;;;;18.08;10.07;;;;;;;17.18;68.54;98880.50;4747934;30;20447;-62
2021/08/26 06:40:40;;;;;;;17.45;10.05;;;;;;;17.21;68.17;98881.81;4745876;30;20583;-62
2021/08/26 06:43:05;;;;;;;14.48;8.75;;;;;;;17.13;68.34;98890.50;4748712;30;20139;-60
2021/08/26 06:45:32;;;;;;;18.35;9.85;;;;;;;16.99;69.02;98893.09;4746711;30;20147;-61
2021/08/26 06:47:57;;;;;;;16.83;9.88;;;;;;;16.86;69.18;98894.66;4747503;30;20055;-61
2021/08/26 06:50:23;;;;;;;16.92;9.88;;;;;;;16.78;69.41;98897.97;4748110;30;20052;-61
2021/08/26 06:52:49;;;;;;;15.23;9.57;;;;;;;16.72;70.16;98896.44;4747276;30;20083;-61
2021/08/26 06:55:15;;;;;;;18.88;9.68;;;;;;;16.66;70.30;98898.38;4746011;30;20483;-61
2021/08/26 06:57:41;;;;;;;17.50;9.98;;;;;;;16.60;70.49;98904.88;4745497;30;20048;-61
2021/08/26 07:00:07;;;;;;;16.45;10.00;;;;;;;16.60;70.70;98906.78;4746404;30;20074;-61
2021/08/26 07:02:33;;;;;;;16.77;10.43;;;;;;;16.66;70.89;98897.59;4748428;30;20499;-61
2021/08/26 07:04:59;;;;;;;14.50;10.15;;;;;;;16.74;70.06;98905.75;4748494;30;20048;-61
2021/08/26 07:07:25;;;;;;;15.20;10.68;;;;;;;16.89;69.54;98906.66;4731458;30;20561;-61
2021/08/26 07:09:51;;;;;;;15.27;11.27;;;;;;;17.02;69.33;98908.59;4748162;30;20090;-61
2021/08/26 07:12:16;;;;;;;16.45;10.32;;;;;;;17.15;68.81;98901.72;4747080;30;20135;-61
2021/08/26 07:14:42;;;;;;;14.60;11.13;;;;;;;17.24;68.58;98897.28;4731240;30;20535;-61
2021/08/26 07:17:08;;;;;;;17.95;11.07;;;;;;;17.29;68.62;98909.78;4747568;30;20048;-63
2021/08/26 07:19:34;;;;;;;17.10;10.55;;;;;;;17.29;68.64;98904.41;4748643;30;20532;-63
2021/08/26 07:21:59;;;;;;;16.73;10.93;;;;;;;17.25;68.88;98915.72;4747643;30;20056;-60
2021/08/26 07:24:25;;;;;;;15.98;10.80;;;;;;;17.36;68.77;98913.69;4747022;30;20056;-62
2021/08/26 07:26:51;;;;;;;15.68;11.32;;;;;;;17.47;67.67;98907.06;4747216;30;20063;-61
2021/08/26 07:29:17;;;;;;;15.27;11.77;;;;;;;17.57;68.00;98914.13;4736034;30;20434;-61
2021/08/26 07:31:45;;;;;;;15.32;11.35;;;;;;;17.59;68.00;98906.59;4747758;30;20125;-61
2021/08/26 07:34:12;;;;;;;14.50;11.60;;;;;;;17.58;67.84;98915.72;4747679;30;20458;-62
2021/08/26 07:36:37;;;;;;;19.30;11.57;;;;;;;17.66;68.09;98914.25;4745430;30;20072;-62
2021/08/26 07:39:03;;;;;;;22.98;11.77;;;;;;;17.81;67.43;98915.88;4724556;30;20110;-63
2021/08/26 07:41:30;;;;;;;18.58;11.77;;;;;;;17.86;67.24;98916.59;4746479;30;20465;-60
2021/08/26 07:43:59;;;;;;;17.50;11.07;;;;;;;17.96;67.00;98920.94;4730637;30;20052;-62
2021/08/26 07:46:25;;;;;;;16.95;10.80;;;;;;;18.05;66.41;98926.41;4743418;30;20473;-61
2021/08/26 07:48:51;;;;;;;20.08;10.98;;;;;;;18.19;65.89;98918.38;4728486;30;20619;-62
2021/08/26 07:51:17;;;;;;;15.93;10.98;;;;;;;18.41;65.39;98929.19;4731096;30;20044;-61
2021/08/26 07:53:42;;;;;;;17.38;10.85;;;;;;;18.53;64.62;98926.81;4745857;30;20048;-62
2021/08/26 07:56:08;;;;;;;16.77;10.60;;;;;;;18.57;64.69;98927.78;4743668;30;20040;-61
2021/08/26 07:58:34;;;;;;;20.27;11.02;;;;;;;18.59;64.78;98925.59;4745401;30;20056;-61
2021/08/26 08:01:01;;;;;;;17.00;10.90;;;;;;;18.62;64.70;98932.25;4758838;30;20052;-61
2021/08/26 08:03:27;;;;;;;16.13;10.73;;;;;;;18.59;64.62;98930.97;4758624;30;20086;-62
2021/08/26 08:05:54;;;;;;;14.50;10.88;;;;;;;18.66;64.57;98935.13;4761141;30;20505;-62
2021/08/26 08:08:19;;;;;;;14.32;10.85;;;;;;;18.62;64.48;98940.31;4729746;30;20064;-60
2021/08/26 08:10:45;;;;;;;14.52;10.65;;;;;;;18.57;64.57;98937.72;4730072;30;20079;-62
2021/08/26 08:13:11;;;;;;;16.63;11.40;;;;;;;18.69;64.53;98940.69;4727145;30;20059;-62
2021/08/26 08:15:37;;;;;;;18.75;11.20;;;;;;;18.81;64.51;98935.59;4714765;30;20045;-61
2021/08/26 08:18:04;;;;;;;18.67;11.05;;;;;;;18.93;64.00;98940.44;4727588;30;20060;-61
2021/08/26 08:20:29;;;;;;;17.38;11.10;;;;;;;19.03;64.01;98934.03;4745066;30;20054;-61
2021/08/26 08:22:55;;;;;;;19.88;11.52;;;;;;;19.40;63.43;98937.47;4746836;30;20062;-61
2021/08/26 08:25:21;;;;;;;18.88;11.18;;;;;;;19.71;62.68;98959.06;4715657;30;20113;-61
2021/08/26 08:27:47;;;;;;;16.48;11.05;;;;;;;19.84;61.89;98944.72;4746778;30;20056;-63
2021/08/26 08:30:13;;;;;;;14.95;10.68;;;;;;;19.69;62.04;98950.50;4745848;30;20523;-62
2021/08/26 08:32:38;;;;;;;14.00;10.52;;;;;;;19.57;62.58;98942.19;4745936;30;20101;-60
2021/08/26 08:35:05;;;;;;;16.00;10.65;;;;;;;19.56;62.93;98952.13;4749488;30;20060;-62
2021/08/26 08:37:31;;;;;;;17.65;11.10;;;;;;;19.59;63.50;98959.59;4734061;30;20047;-62
2021/08/26 08:39:56;;;;;;;16.80;11.93;;;;;;;19.75;62.73;98954.63;4750084;30;20052;-63
2021/08/26 08:42:23;;;;;;;19.10;11.88;;;;;;;19.90;61.74;98958.81;4751480;30;20055;-60
2021/08/26 08:44:50;;;;;;;18.63;11.63;;;;;;;19.78;63.04;98947.84;4748682;30;20051;-60
2021/08/26 08:47:16;;;;;;;17.00;11.70;;;;;;;19.82;62.67;98956.88;4750576;30;20051;-62
2021/08/26 08:49:43;;;;;;;16.08;11.80;;;;;;;19.74;62.54;98943.09;4752957;30;20147;-61
2021/08/26 08:52:09;;;;;;;18.95;12.52;;;;;;;19.72;62.98;98953.34;4761136;30;20062;-63
2021/08/26 08:54:35;;;;;;;17.98;13.07;;;;;;;20.01;62.31;98962.03;4748379;30;20044;-64
2021/08/26 08:57:02;;;;;;;20.48;12.77;;;;;;;20.13;62.17;98946.91;4750285;30;20052;-61
2021/08/26 08:59:35;;;;;;;18.17;13.05;;;;;;;20.29;62.10;98951.84;4749494;30;20533;-61
2021/08/26 09:02:01;;;;;;;19.00;13.23;;;;;;;20.51;60.81;98953.66;4732176;30;20121;-59
2021/08/26 09:04:27;;;;;;;16.95;12.27;;;;;;;20.53;60.44;98957.66;4748906;30;20052;-63
2021/08/26 09:06:53;;;;;;;23.40;13.32;;;;;;;20.67;60.20;98948.66;4750800;30;20314;-61
2021/08/26 09:09:22;;;;;;;20.35;14.30;;;;;;;20.80;59.01;98951.22;4749425;30;20139;-60
2021/08/26 09:11:53;;;;;;;18.77;14.05;;;;;;;20.94;58.71;98951.06;4734385;30;20608;-63
2021/08/26 09:14:19;;;;;;;21.60;14.32;;;;;;;21.12;58.19;98956.44;4735424;30;20083;-61
2021/08/26 09:16:50;;;;;;;21.27;13.98;;;;;;;21.18;57.58;98964.06;4750174;30;20135;-61
2021/08/26 09:19:21;;;;;;;20.90;13.20;;;;;;;21.25;57.73;98960.88;4748941;30;20082;-61
2021/08/26 09:21:48;;;;;;;20.27;13.93;;;;;;;21.29;57.71;98964.50;4750006;30;20411;-62
2021/08/26 09:24:14;;;;;;;23.25;14.65;;;;;;;21.30;57.17;98958.03;4748174;30;20052;-61
2021/08/26 09:26:42;;;;;;;18.67;14.98;;;;;;;21.27;57.46;98964.84;4719108;30;20048;-62
2021/08/26 09:29:10;;;;;;;19.17;14.60;;;;;;;21.12;57.78;98969.91;4749956;30;20052;-61
2021/08/26 09:31:36;;;;;;;26.13;15.90;;;;;;;21.03;58.07;98959.94;4735477;30;20044;-62
2021/08/26 09:34:03;;;;;;;24.30;16.98;;;;;;;21.09;58.25;98968.66;4764268;30;20431;-62
2021/08/26 09:36:53;;;;;;;27.70;17.48;;;;;;;21.25;57.58;98968.97;4750508;30;20059;-66
2021/08/26 09:39:21;;;;;;;18.50;15.48;;;;;;;21.39;57.12;98969.63;4749743;30;20083;-63
2021/08/26 09:41:49;;;;;;;20.55;16.05;;;;;;;21.35;57.48;98962.44;4751144;30;20507;-63
2021/08/26 09:44:18;;;;;;;22.48;15.32;;;;;;;21.19;57.61;98967.53;4732605;30;20511;-61
2021/08/26 09:46:49;;;;;;;19.67;14.93;;;;;;;21.19;57.80;98968.34;4748212;30;20557;-65
2021/08/26 09:49:20;;;;;;;22.85;14.85;;;;;;;21.20;58.03;98971.81;4734749;30;20195;-64
2021/08/26 09:52:01;;;;;;;20.38;14.52;;;;;;;21.24;58.04;98973.56;4750905;30;20500;-64
2021/08/26 09:54:40;;;;;;;21.70;14.65;;;;;;;21.36;57.57;98972.97;4732245;30;20048;-63
2021/08/26 09:57:21;;;;;;;19.88;15.20;;;;;;;21.37;57.42;98979.91;4750456;30;20121;-63
2021/08/26 09:59:58;;;;;;;21.48;14.77;;;;;;;21.41;57.60;98980.84;4749220;30;20523;-64
2021/08/26 10:02:28;;;;;;;21.33;15.20;;;;;;;21.46;57.35;98982.63;4750515;30;20118;-62
2021/08/26 10:04:55;;;;;;;23.10;15.45;;;;;;;21.42;57.52;98987.06;4750220;30;20059;-63
2021/08/26 10:07:24;;;;;;;19.13;14.25;;;;;;;21.44;57.93;98990.22;4734344;30;20165;-64
2021/08/26 10:09:50;;;;;;;18.60;13.85;;;;;;;21.50;57.68;98984.38;4749450;30;20087;-64
2021/08/26 10:12:17;;;;;;;18.52;14.52;;;;;;;21.60;57.57;98977.84;4750623;30;20441;-61
2021/08/26 10:14:45;;;;;;;16.90;13.77;;;;;;;21.76;56.95;98988.91;4733375;30;20515;-65
2021/08/26 10:17:12;;;;;;;18.60;14.43;;;;;;;21.82;56.76;98987.63;4752918;30;20192;-64
2021/08/26 10:19:38;;;;;;;18.20;13.98;;;;;;;21.98;56.72;98987.91;4727353;30;20577;-65
2021/08/26 10:22:05;;;;;;;18.35;13.63;;;;;;;22.18;55.98;98984.53;4747219;30;20527;-62
2021/08/26 10:24:32;;;;;;;21.30;13.05;;;;;;;22.20;56.02;98989.59;4748382;30;20084;-63
2021/08/26 10:27:04;;;;;;;21.15;13.63;;;;;;;22.17;55.88;98995.63;4732127;30;20058;-63
2021/08/26 10:29:31;;;;;;;17.75;12.60;;;;;;;22.26;56.27;98991.00;4750121;30;20048;-64
2021/08/26 10:31:59;;;;;;;16.38;13.45;;;;;;;22.21;56.31;98991.19;4733260;30;20423;-62
2021/08/26 10:34:27;;;;;;;14.85;12.75;;;;;;;22.12;56.92;98991.19;4748491;30;20059;-62
2021/08/26 10:36:59;;;;;;;17.20;12.68;;;;;;;21.94;57.59;98989.66;4749059;30;20063;-64
2021/08/26 10:39:28;;;;;;;18.23;13.25;;;;;;;21.81;58.07;98991.44;4732712;30;20526;-62
2021/08/26 10:41:56;;;;;;;18.83;13.43;;;;;;;21.76;58.55;98984.28;4732688;30;20044;-62
2021/08/26 10:44:22;;;;;;;16.60;13.23;;;;;;;21.81;58.69;98986.03;4733620;30;20108;-63
2021/08/26 10:46:54;;;;;;;18.13;13.55;;;;;;;21.86;59.10;98985.88;4749843;30;20055;-63
2021/08/26 10:49:22;;;;;;;19.15;14.25;;;;;;;21.91;58.56;98995.69;4732984;30;20063;-63
2021/08/26 10:51:50;;;;;;;20.20;13.75;;;;;;;21.84;58.59;98987.31;4747457;30;20051;-63
2021/08/26 10:54:24;;;;;;;20.08;14.63;;;;;;;21.89;58.58;99001.41;4749100;30;20052;-62
2021/08/26 10:56:50;;;;;;;24.83;13.77;;;;;;;21.90;58.71;99002.22;4748220;30;20051;-64
2021/08/26 10:59:30;;;;;;;19.67;14.15;;;;;;;21.77;59.53;98994.00;4748232;30;20052;-65
2021/08/26 11:01:56;;;;;;;18.35;13.98;;;;;;;21.83;59.56;98988.44;4762177;30;20457;-63
2021/08/26 11:04:29;;;;;;;20.58;13.98;;;;;;;21.83;59.57;98988.44;4731811;30;20376;-65
2021/08/26 11:06:56;;;;;;;19.27;14.00;;;;;;;21.70;60.15;98999.06;4748443;30;20052;-64
2021/08/26 11:09:28;;;;;;;24.35;13.90;;;;;;;21.59;60.56;99000.53;4749368;30;20187;-64
2021/08/26 11:11:59;;;;;;;21.05;14.88;;;;;;;21.35;61.12;98997.50;4747488;30;20044;-62
2021/08/26 11:14:28;;;;;;;21.50;14.65;;;;;;;21.18;61.69;98976.72;4749409;30;20427;-64
2021/08/26 11:16:59;;;;;;;23.20;15.48;;;;;;;20.94;62.52;98987.97;4747181;30;20114;-64
2021/08/26 11:19:27;;;;;;;22.02;15.55;;;;;;;20.85;63.05;98987.97;4731570;30;20060;-64
2021/08/26 11:21:52;;;;;;;19.73;15.00;;;;;;;20.74;63.46;98992.88;4748856;30;20048;-63
2021/08/26 11:24:19;;;;;;;21.88;14.77;;;;;;;20.63;64.22;98994.28;4749262;30;20078;-65
2021/08/26 11:27:00;;;;;;;23.60;15.35;;;;;;;20.57;64.36;98999.00;4749138;30;20059;-63